Time;durP1;ratioP1;P1;durP2;ratioP2;P2;SDS_P1;SDS_P2;PMS_P1;PMS_P2;Temp;Humidity;BMP_temperature;BMP_pressure;BME280_temperature;BME280_humidity;BME280_pressure;Samples;Min_cycle;Max_cycle;Signal;HPM_P1;HPM_P2
2023/04/16 00:00:03;;;;;;;;;;;7.50;99.90;;;;;;4818137;29;19920;-64
2023/04/16 00:02:29;;;;;;;;;;;7.50;99.90;;;;;;4799484;29;20254;-64
2023/04/16 00:04:54;;;;;;;;;;;7.60;99.90;;;;;;4813997;29;19928;-64
2023/04/16 00:07:20;;;;;;;;;;;7.50;99.90;;;;;;4801563;29;19929;-65
2023/04/16 00:09:45;;;;;;;;;;;7.60;99.90;;;;;;4830278;29;20397;-64
2023/04/16 00:12:11;;;;;;;;;;;7.70;99.90;;;;;;4826126;29;20013;-64
2023/04/16 00:14:37;;;;;;;;;;;7.60;99.90;;;;;;4826884;29;19920;-65
2023/04/16 00:17:02;;;;;;;;;;;7.60;99.90;;;;;;4818577;29;19924;-64
2023/04/16 00:19:28;;;;;;;;;;;7.50;99.90;;;;;;4833065;29;19995;-65
2023/04/16 00:21:53;;;;;;;;;;;7.50;99.90;;;;;;4826166;29;20468;-64
2023/04/16 00:24:19;;;;;;;;;;;7.50;99.90;;;;;;4833238;29;19931;-65
2023/04/16 00:26:45;;;;;;;;;;;7.40;99.90;;;;;;4830012;29;19948;-64
2023/04/16 00:29:11;;;;;;;;;;;7.30;99.90;;;;;;4828445;29;19995;-65
2023/04/16 00:31:36;;;;;;;;;;;7.30;99.90;;;;;;4830195;29;20618;-65
2023/04/16 00:34:02;;;;;;;;;;;7.30;99.90;;;;;;4831965;29;20421;-64
2023/04/16 00:36:27;;;;;;;;;;;7.30;99.90;;;;;;4829739;29;19950;-65
2023/04/16 00:38:54;;;;;;;;;;;7.20;99.90;;;;;;4826544;29;19942;-64
2023/04/16 00:41:20;;;;;;;;;;;7.20;99.90;;;;;;4823769;29;20048;-65
2023/04/16 00:43:45;;;;;;;;;;;7.10;99.90;;;;;;4831055;29;20220;-65
2023/04/16 00:46:11;;;;;;;;;;;7.10;99.90;;;;;;4826733;29;20508;-65
2023/04/16 00:48:37;;;;;;;;;;;7.10;99.90;;;;;;4813023;29;19916;-65
2023/04/16 00:51:06;;;;;;;;;;;7.10;99.90;;;;;;4823277;29;19947;-64
2023/04/16 00:53:33;;;;;;;;;;;7.00;99.90;;;;;;4831273;29;19916;-65
2023/04/16 00:55:59;;;;;;;;;;;6.90;99.90;;;;;;4825842;29;20058;-65
2023/04/16 00:58:25;;;;;;;;;;;6.80;99.90;;;;;;4826078;29;19958;-65
2023/04/16 01:00:50;;;;;;;;;;;6.80;99.90;;;;;;4824700;29;19938;-65
2023/04/16 01:03:16;;;;;;;;;;;6.80;99.90;;;;;;4824228;29;19963;-65
2023/04/16 01:05:42;;;;;;;;;;;6.80;99.90;;;;;;4812340;29;19959;-64
2023/04/16 01:08:15;;;;;;;;;;;6.80;99.90;;;;;;4814685;29;19949;-64
2023/04/16 01:10:41;;;;;;;;;;;6.80;99.90;;;;;;4820997;29;19926;-64
2023/04/16 01:13:06;;;;;;;;;;;6.70;99.90;;;;;;4820260;29;20490;-64
2023/04/16 01:15:32;;;;;;;;;;;6.70;99.90;;;;;;4821142;29;20076;-65
2023/04/16 01:17:57;;;;;;;;;;;6.60;99.90;;;;;;4821739;29;20406;-65
2023/04/16 01:20:23;;;;;;;;;;;6.60;99.90;;;;;;4819847;29;19952;-65
2023/04/16 01:22:48;;;;;;;;;;;6.60;99.90;;;;;;4804808;29;19963;-65
2023/04/16 01:25:15;;;;;;;;;;;6.60;99.90;;;;;;4820945;29;20825;-64
2023/04/16 01:27:40;;;;;;;;;;;6.60;99.90;;;;;;4826836;29;20034;-64
2023/04/16 01:30:06;;;;;;;;;;;6.50;99.90;;;;;;4816759;29;20392;-66
2023/04/16 01:32:31;;;;;;;;;;;6.50;99.90;;;;;;4820851;29;21056;-64
2023/04/16 01:34:57;;;;;;;;;;;6.40;99.90;;;;;;4820362;29;19955;-65
2023/04/16 01:37:23;;;;;;;;;;;6.40;99.90;;;;;;4822998;29;19947;-65
2023/04/16 01:39:48;;;;;;;;;;;6.30;99.90;;;;;;4825046;29;20030;-65
2023/04/16 01:42:14;;;;;;;;;;;6.20;99.90;;;;;;4820639;29;19942;-64
2023/04/16 01:44:40;;;;;;;;;;;6.30;99.90;;;;;;4825424;29;19955;-65
2023/04/16 01:47:05;;;;;;;;;;;6.20;99.90;;;;;;4823587;29;20005;-65
2023/04/16 01:49:31;;;;;;;;;;;6.20;99.90;;;;;;4821552;29;19938;-63
2023/04/16 01:51:56;;;;;;;;;;;6.20;99.90;;;;;;4817910;29;20482;-63
2023/04/16 01:54:22;;;;;;;;;;;6.20;99.90;;;;;;4821080;29;19941;-64
2023/04/16 01:56:47;;;;;;;;;;;6.30;99.90;;;;;;4819689;29;20419;-62
2023/04/16 01:59:13;;;;;;;;;;;6.20;99.90;;;;;;4823878;29;19980;-62
2023/04/16 02:01:39;;;;;;;;;;;6.20;99.90;;;;;;4824802;29;20834;-62
2023/04/16 02:04:05;;;;;;;;;;;6.20;99.90;;;;;;4825070;29;20164;-62
2023/04/16 02:06:30;;;;;;;;;;;6.20;99.90;;;;;;4821451;29;19919;-62
2023/04/16 02:08:56;;;;;;;;;;;6.30;99.90;;;;;;4822599;29;19923;-62
2023/04/16 02:11:21;;;;;;;;;;;6.30;99.90;;;;;;4824919;29;19916;-62
2023/04/16 02:13:47;;;;;;;;;;;6.40;99.90;;;;;;4828623;29;20408;-61
2023/04/16 02:16:13;;;;;;;;;;;6.40;99.90;;;;;;4818457;29;19924;-61
2023/04/16 02:18:38;;;;;;;;;;;6.40;99.90;;;;;;4825139;29;19916;-62
2023/04/16 02:21:05;;;;;;;;;;;6.30;99.90;;;;;;4822506;29;20561;-62
2023/04/16 02:23:30;;;;;;;;;;;6.10;99.90;;;;;;4827125;29;20077;-62
2023/04/16 02:25:56;;;;;;;;;;;6.00;99.90;;;;;;4826034;29;20001;-62
2023/04/16 02:28:22;;;;;;;;;;;5.90;99.90;;;;;;4824875;29;20056;-62
2023/04/16 02:30:47;;;;;;;;;;;5.80;99.90;;;;;;4820868;29;19943;-62
2023/04/16 02:33:13;;;;;;;;;;;5.80;99.90;;;;;;4820931;29;19944;-62
2023/04/16 02:35:39;;;;;;;;;;;5.80;99.90;;;;;;4822586;29;19971;-62
2023/04/16 02:38:05;;;;;;;;;;;5.90;99.90;;;;;;4823180;29;20372;-62
2023/04/16 02:40:30;;;;;;;;;;;5.80;99.90;;;;;;4822111;29;19942;-62
2023/04/16 02:42:56;;;;;;;;;;;5.90;99.90;;;;;;4822690;29;19969;-62
2023/04/16 02:45:22;;;;;;;;;;;5.90;99.90;;;;;;4826429;29;19943;-62
2023/04/16 02:47:48;;;;;;;;;;;5.90;99.90;;;;;;4820948;29;19993;-62
2023/04/16 02:50:14;;;;;;;;;;;5.90;99.90;;;;;;4819277;29;20002;-62
2023/04/16 02:52:39;;;;;;;;;;;5.90;99.90;;;;;;4819243;29;19931;-62
2023/04/16 02:55:05;;;;;;;;;;;5.90;99.90;;;;;;4821848;29;20071;-62
2023/04/16 02:57:31;;;;;;;;;;;5.90;99.90;;;;;;4824296;29;20619;-62
2023/04/16 02:59:56;;;;;;;;;;;5.80;99.90;;;;;;4824833;29;20388;-61
2023/04/16 03:02:22;;;;;;;;;;;5.70;99.90;;;;;;4822885;29;19953;-62
2023/04/16 03:04:47;;;;;;;;;;;5.60;99.90;;;;;;4821387;29;20349;-62
2023/04/16 03:07:13;;;;;;;;;;;5.70;99.90;;;;;;4824795;29;22342;-62
2023/04/16 03:09:39;;;;;;;;;;;5.70;99.90;;;;;;4824893;29;19995;-61
2023/04/16 03:12:04;;;;;;;;;;;5.60;99.90;;;;;;4821494;29;20541;-62
2023/04/16 03:14:30;;;;;;;;;;;5.50;99.90;;;;;;4820959;29;19997;-62
2023/04/16 03:16:56;;;;;;;;;;;5.50;99.90;;;;;;4823072;29;19941;-62
2023/04/16 03:19:21;;;;;;;;;;;5.50;99.90;;;;;;4821049;29;19950;-61
2023/04/16 03:21:47;;;;;;;;;;;5.40;99.90;;;;;;4819532;29;19940;-62
2023/04/16 03:24:12;;;;;;;;;;;5.50;99.90;;;;;;4824033;29;19969;-61
2023/04/16 03:26:38;;;;;;;;;;;5.50;99.90;;;;;;4828364;29;19942;-61
2023/04/16 03:29:03;;;;;;;;;;;5.50;99.90;;;;;;4819292;29;26707;-61
2023/04/16 03:31:29;;;;;;;;;;;5.50;99.90;;;;;;4826524;29;19946;-62
2023/04/16 03:33:54;;;;;;;;;;;5.50;99.90;;;;;;4821013;29;20443;-61
2023/04/16 03:36:21;;;;;;;;;;;5.50;99.90;;;;;;4821219;29;19946;-61
2023/04/16 03:38:47;;;;;;;;;;;5.50;99.90;;;;;;4820389;29;19995;-63
2023/04/16 03:41:13;;;;;;;;;;;5.50;99.90;;;;;;4827227;29;19938;-61
2023/04/16 03:43:38;;;;;;;;;;;5.60;99.90;;;;;;4826235;29;20658;-62
2023/04/16 03:46:04;;;;;;;;;;;5.50;99.90;;;;;;4815409;29;20317;-62
2023/04/16 03:48:30;;;;;;;;;;;5.50;99.90;;;;;;4817672;29;19977;-62
2023/04/16 03:50:55;;;;;;;;;;;5.60;99.90;;;;;;4814508;29;19942;-62
2023/04/16 03:53:21;;;;;;;;;;;5.60;99.90;;;;;;4825859;29;19939;-62
2023/04/16 03:55:49;;;;;;;;;;;5.50;99.90;;;;;;4816140;29;20556;-62
2023/04/16 03:58:15;;;;;;;;;;;5.50;99.90;;;;;;4825792;29;19949;-62
2023/04/16 04:00:41;;;;;;;;;;;5.60;99.90;;;;;;4825859;29;19946;-63
2023/04/16 04:03:06;;;;;;;;;;;5.60;99.90;;;;;;4825905;29;20002;-61
2023/04/16 04:05:35;;;;;;;;;;;5.60;99.90;;;;;;4823863;29;20315;-62
2023/04/16 04:08:01;;;;;;;;;;;5.60;99.90;;;;;;4825914;29;19939;-62
2023/04/16 04:10:26;;;;;;;;;;;5.60;99.90;;;;;;4821005;29;20110;-62
2023/04/16 04:12:52;;;;;;;;;;;5.60;99.90;;;;;;4816673;29;19993;-63
2023/04/16 04:15:17;;;;;;;;;;;5.60;99.90;;;;;;4822870;29;20411;-62
2023/04/16 04:17:43;;;;;;;;;;;5.60;99.90;;;;;;4827297;29;21388;-62
2023/04/16 04:20:08;;;;;;;;;;;5.70;99.90;;;;;;4822652;29;20566;-62
2023/04/16 04:22:34;;;;;;;;;;;5.60;99.90;;;;;;4829748;29;20677;-63
2023/04/16 04:25:00;;;;;;;;;;;5.60;99.90;;;;;;4823776;29;20738;-62
2023/04/16 04:27:26;;;;;;;;;;;5.70;99.90;;;;;;4820720;29;19942;-62
2023/04/16 04:29:52;;;;;;;;;;;5.70;99.90;;;;;;4825086;29;20508;-62
2023/04/16 04:32:17;;;;;;;;;;;5.70;99.90;;;;;;4818722;29;19931;-62
2023/04/16 04:34:43;;;;;;;;;;;5.80;99.90;;;;;;4830406;29;19916;-62
2023/04/16 04:37:08;;;;;;;;;;;5.70;99.90;;;;;;4816723;29;19947;-62
2023/04/16 04:39:34;;;;;;;;;;;5.80;99.90;;;;;;4821972;29;20422;-62
2023/04/16 04:42:01;;;;;;;;;;;5.90;99.90;;;;;;4819987;29;19934;-62
2023/04/16 04:44:27;;;;;;;;;;;5.90;99.90;;;;;;4823906;29;19928;-62
2023/04/16 04:46:52;;;;;;;;;;;6.00;99.90;;;;;;4823216;29;19916;-62
2023/04/16 04:49:18;;;;;;;;;;;6.00;99.90;;;;;;4826801;29;19931;-62
2023/04/16 04:51:44;;;;;;;;;;;6.10;99.90;;;;;;4822627;29;19917;-62
2023/04/16 04:54:10;;;;;;;;;;;6.30;99.90;;;;;;4823476;29;20387;-62
2023/04/16 04:56:35;;;;;;;;;;;6.30;99.90;;;;;;4819592;29;20281;-62
2023/04/16 04:59:01;;;;;;;;;;;6.50;99.90;;;;;;4822741;29;20289;-62
2023/04/16 05:01:26;;;;;;;;;;;6.70;99.90;;;;;;4820095;29;20180;-62
2023/04/16 05:03:52;;;;;;;;;;;6.80;99.90;;;;;;4825761;29;19934;-62
2023/04/16 05:06:17;;;;;;;;;;;6.90;99.90;;;;;;4821980;29;19966;-62
2023/04/16 05:08:43;;;;;;;;;;;7.00;99.90;;;;;;4824374;29;19916;-65
2023/04/16 05:11:08;;;;;;;;;;;7.10;99.90;;;;;;4826915;29;20374;-61
2023/04/16 05:13:34;;;;;;;;;;;7.10;99.90;;;;;;4821386;29;19979;-64
2023/04/16 05:15:59;;;;;;;;;;;7.10;99.90;;;;;;4807686;29;20288;-64
2023/04/16 05:18:25;;;;;;;;;;;7.20;99.90;;;;;;4827154;29;19920;-65
2023/04/16 05:20:51;;;;;;;;;;;7.30;99.90;;;;;;4823466;29;19923;-64
2023/04/16 05:23:16;;;;;;;;;;;7.50;99.90;;;;;;4827887;29;20030;-64
2023/04/16 05:25:42;;;;;;;;;;;7.60;99.90;;;;;;4828840;29;20011;-64
2023/04/16 05:28:07;;;;;;;;;;;7.70;99.90;;;;;;4820715;29;19923;-64
2023/04/16 05:30:33;;;;;;;;;;;7.80;99.90;;;;;;4824998;29;20325;-65
2023/04/16 05:32:58;;;;;;;;;;;7.80;99.90;;;;;;4828604;29;20035;-65
2023/04/16 05:35:24;;;;;;;;;;;8.00;99.90;;;;;;4823194;29;20297;-62
2023/04/16 05:37:50;;;;;;;;;;;8.20;99.90;;;;;;4829377;29;22305;-64
2023/04/16 05:40:15;;;;;;;;;;;8.50;99.90;;;;;;4820182;29;20764;-63
2023/04/16 05:42:41;;;;;;;;;;;8.60;99.90;;;;;;4824251;29;20186;-62
2023/04/16 05:45:07;;;;;;;;;;;8.80;99.90;;;;;;4829834;29;20169;-61
2023/04/16 05:47:32;;;;;;;;;;;9.00;99.90;;;;;;4827881;29;19935;-62
2023/04/16 05:49:58;;;;;;;;;;;9.10;99.90;;;;;;4822624;29;21156;-64
2023/04/16 05:52:23;;;;;;;;;;;9.30;99.90;;;;;;4822308;29;19951;-63
2023/04/16 05:54:49;;;;;;;;;;;9.40;99.90;;;;;;4825790;29;20628;-64
2023/04/16 05:57:14;;;;;;;;;;;9.50;99.90;;;;;;4826110;29;20809;-64
2023/04/16 05:59:40;;;;;;;;;;;9.60;99.90;;;;;;4825673;29;19931;-63
2023/04/16 06:02:06;;;;;;;;;;;9.80;99.90;;;;;;4819521;29;19920;-64
2023/04/16 06:04:31;;;;;;;;;;;9.90;99.90;;;;;;4814034;29;20192;-64
2023/04/16 06:06:57;;;;;;;;;;;9.90;99.90;;;;;;4819413;29;20178;-63
2023/04/16 06:09:23;;;;;;;;;;;10.10;99.90;;;;;;4824665;29;19921;-64
2023/04/16 06:11:49;;;;;;;;;;;10.10;99.90;;;;;;4821789;29;19947;-62
2023/04/16 06:14:15;;;;;;;;;;;10.10;99.90;;;;;;4823840;29;21166;-62
2023/04/16 06:16:40;;;;;;;;;;;10.10;99.90;;;;;;4822863;29;20596;-64
2023/04/16 06:19:06;;;;;;;;;;;10.20;99.90;;;;;;4825830;29;20402;-63
2023/04/16 06:21:32;;;;;;;;;;;10.30;99.90;;;;;;4824973;29;20678;-62
2023/04/16 06:23:57;;;;;;;;;;;10.40;99.90;;;;;;4822827;29;19929;-63
2023/04/16 06:26:23;;;;;;;;;;;10.40;99.90;;;;;;4824922;29;22041;-63
2023/04/16 06:28:49;;;;;;;;;;;10.40;99.90;;;;;;4825802;29;20002;-63
2023/04/16 06:31:14;;;;;;;;;;;10.40;99.90;;;;;;4819452;29;20617;-63
2023/04/16 06:33:40;;;;;;;;;;;10.50;99.90;;;;;;4821747;29;20337;-63
2023/04/16 06:36:06;;;;;;;;;;;10.60;99.90;;;;;;4822017;29;19920;-63
2023/04/16 06:38:31;;;;;;;;;;;10.70;99.90;;;;;;4822776;29;20042;-63
2023/04/16 06:40:58;;;;;;;;;;;10.80;99.90;;;;;;4823067;29;19927;-64
2023/04/16 06:43:24;;;;;;;;;;;10.80;99.90;;;;;;4821187;29;20396;-63
2023/04/16 06:45:49;;;;;;;;;;;10.80;99.90;;;;;;4828909;29;19969;-63
2023/04/16 06:48:15;;;;;;;;;;;10.80;99.90;;;;;;4816583;29;19935;-63
2023/04/16 06:50:40;;;;;;;;;;;10.90;99.90;;;;;;4812621;29;19923;-63
2023/04/16 06:53:06;;;;;;;;;;;11.00;99.90;;;;;;4800333;29;19972;-62
2023/04/16 06:55:32;;;;;;;;;;;11.10;99.90;;;;;;4826453;29;19927;-62
2023/04/16 06:57:57;;;;;;;;;;;11.20;99.90;;;;;;4826110;29;20478;-63
2023/04/16 07:00:23;;;;;;;;;;;11.20;99.90;;;;;;4815393;29;19958;-61
2023/04/16 07:02:48;;;;;;;;;;;11.20;99.90;;;;;;4817865;29;19923;-62
2023/04/16 07:05:14;;;;;;;;;;;11.20;99.90;;;;;;4810617;29;20941;-61
2023/04/16 07:07:39;;;;;;;;;;;11.20;99.90;;;;;;4805174;29;19919;-61
2023/04/16 07:10:06;;;;;;;;;;;11.10;99.90;;;;;;4810134;29;19928;-61
2023/04/16 07:12:31;;;;;;;;;;;11.10;99.90;;;;;;4831721;29;19926;-61
2023/04/16 07:14:57;;;;;;;;;;;11.10;99.90;;;;;;4829293;29;19916;-62
2023/04/16 07:17:23;;;;;;;;;;;11.10;99.90;;;;;;4828660;29;19912;-62
2023/04/16 07:19:49;;;;;;;;;;;11.20;99.90;;;;;;4830713;29;19917;-61
2023/04/16 07:22:14;;;;;;;;;;;11.20;99.90;;;;;;4809012;29;19920;-62
2023/04/16 07:24:40;;;;;;;;;;;11.10;99.90;;;;;;4814110;29;20417;-62
2023/04/16 07:27:06;;;;;;;;;;;11.10;99.90;;;;;;4832139;29;20036;-62
2023/04/16 07:29:31;;;;;;;;;;;11.10;99.90;;;;;;4841043;29;19916;-62
2023/04/16 07:31:57;;;;;;;;;;;11.20;99.90;;;;;;4813757;29;19920;-62
2023/04/16 07:34:22;;;;;;;;;;;11.30;99.90;;;;;;4833057;29;19970;-61
2023/04/16 07:36:48;;;;;;;;;;;11.30;99.90;;;;;;4826610;29;20214;-62
2023/04/16 07:39:13;;;;;;;;;;;11.40;99.90;;;;;;4835888;29;20811;-62
2023/04/16 07:41:39;;;;;;;;;;;11.40;99.90;;;;;;4839464;29;19916;-62
2023/04/16 07:44:05;;;;;;;;;;;11.40;99.90;;;;;;4829235;29;21727;-62
2023/04/16 07:46:31;;;;;;;;;;;11.40;99.90;;;;;;4830238;29;20425;-61
2023/04/16 07:48:56;;;;;;;;;;;11.50;99.90;;;;;;4827589;29;19924;-61
2023/04/16 07:51:22;;;;;;;;;;;11.40;99.90;;;;;;4833045;29;19916;-61
2023/04/16 07:53:48;;;;;;;;;;;11.50;99.90;;;;;;4828768;29;19916;-61
2023/04/16 07:56:13;;;;;;;;;;;11.50;99.90;;;;;;4820768;29;19920;-61
2023/04/16 07:58:39;;;;;;;;;;;11.50;99.90;;;;;;4830431;29;20016;-61
2023/04/16 08:01:04;;;;;;;;;;;11.50;99.90;;;;;;4820705;29;20649;-60
2023/04/16 08:03:30;;;;;;;;;;;11.50;99.90;;;;;;4821146;29;19928;-60
2023/04/16 08:05:55;;;;;;;;;;;11.60;99.90;;;;;;4821571;29;20274;-60
2023/04/16 08:08:21;;;;;;;;;;;11.70;99.90;;;;;;4828584;29;19927;-61
2023/04/16 08:10:47;;;;;;;;;;;11.80;99.90;;;;;;4834455;29;20460;-61
2023/04/16 08:13:12;;;;;;;;;;;12.00;99.90;;;;;;4810814;29;19916;-66
2023/04/16 08:15:38;;;;;;;;;;;12.10;99.90;;;;;;4807074;29;19959;-67
2023/04/16 08:18:04;;;;;;;;;;;12.40;99.90;;;;;;4808063;29;19921;-68
2023/04/16 08:20:30;;;;;;;;;;;12.70;99.90;;;;;;4808054;29;20579;-61
2023/04/16 08:22:55;;;;;;;;;;;12.70;99.90;;;;;;4810953;29;19924;-62
2023/04/16 08:25:23;;;;;;;;;;;12.80;99.90;;;;;;4839635;29;19920;-61
2023/04/16 08:27:49;;;;;;;;;;;12.80;99.90;;;;;;4839576;29;19912;-63
2023/04/16 08:30:15;;;;;;;;;;;12.90;99.90;;;;;;4824623;29;19920;-63
2023/04/16 08:32:41;;;;;;;;;;;12.90;99.90;;;;;;4830252;29;19916;-63
2023/04/16 08:35:07;;;;;;;;;;;13.10;99.90;;;;;;4822123;29;19969;-62
2023/04/16 08:37:32;;;;;;;;;;;13.20;99.90;;;;;;4825460;29;19916;-62
2023/04/16 08:39:58;;;;;;;;;;;13.30;99.90;;;;;;4820701;29;19918;-61
2023/04/16 08:42:31;;;;;;;;;;;13.40;99.90;;;;;;4824942;29;19920;-62
2023/04/16 08:45:05;;;;;;;;;;;13.40;99.90;;;;;;4833589;29;19931;-63
2023/04/16 08:47:33;;;;;;;;;;;13.50;99.90;;;;;;4831196;29;20015;-61
2023/04/16 08:49:59;;;;;;;;;;;13.60;99.90;;;;;;4828170;29;19916;-61
2023/04/16 08:52:29;;;;;;;;;;;13.60;99.90;;;;;;4828441;29;19927;-61
2023/04/16 08:54:55;;;;;;;;;;;13.60;99.90;;;;;;4825351;29;19916;-61
2023/04/16 08:57:21;;;;;;;;;;;13.70;99.90;;;;;;4823801;29;19927;-61
2023/04/16 08:59:47;;;;;;;;;;;13.70;99.90;;;;;;4833404;29;19931;-62
2023/04/16 09:02:13;;;;;;;;;;;13.80;99.90;;;;;;4810517;29;19916;-62
2023/04/16 09:04:39;;;;;;;;;;;13.80;99.90;;;;;;4822670;29;21007;-61
2023/04/16 09:07:06;;;;;;;;;;;14.00;99.90;;;;;;4824025;29;19916;-62
2023/04/16 09:09:32;;;;;;;;;;;14.10;99.90;;;;;;4832595;29;19932;-62
2023/04/16 09:11:58;;;;;;;;;;;14.20;99.90;;;;;;4823539;29;21010;-62
2023/04/16 09:14:24;;;;;;;;;;;14.30;99.90;;;;;;4820261;29;19958;-63
2023/04/16 09:16:50;;;;;;;;;;;14.30;99.90;;;;;;4825663;29;19920;-62
2023/04/16 09:19:16;;;;;;;;;;;14.40;99.90;;;;;;4829868;29;19917;-63
2023/04/16 09:21:44;;;;;;;;;;;14.40;99.90;;;;;;4820988;29;19923;-62
2023/04/16 09:24:10;;;;;;;;;;;14.40;99.90;;;;;;4824908;29;19928;-61
2023/04/16 09:26:35;;;;;;;;;;;14.40;99.90;;;;;;4806716;29;20086;-61
2023/04/16 09:29:01;;;;;;;;;;;14.40;99.90;;;;;;4831232;29;19963;-61
2023/04/16 09:31:27;;;;;;;;;;;14.40;99.90;;;;;;4832093;29;20437;-61
2023/04/16 09:34:08;;;;;;;;;;;14.40;99.90;;;;;;4837567;29;19921;-61
2023/04/16 09:36:34;;;;;;;;;;;14.50;99.90;;;;;;4832495;29;19920;-61
2023/04/16 09:39:00;;;;;;;;;;;14.50;99.90;;;;;;4838932;29;19912;-61
2023/04/16 09:41:27;;;;;;;;;;;14.60;99.90;;;;;;4836467;29;20361;-64
2023/04/16 09:44:00;;;;;;;;;;;14.60;99.90;;;;;;4839985;29;19931;-64
2023/04/16 09:46:29;;;;;;;;;;;14.60;99.90;;;;;;4835177;29;19916;-63
2023/04/16 09:48:55;;;;;;;;;;;14.70;99.90;;;;;;4834591;29;19970;-63
2023/04/16 09:51:20;;;;;;;;;;;14.80;99.90;;;;;;4835312;29;20031;-63
2023/04/16 09:53:46;;;;;;;;;;;14.90;99.90;;;;;;4832907;29;19976;-63
2023/04/16 09:56:12;;;;;;;;;;;14.90;99.90;;;;;;4839670;29;19923;-64
2023/04/16 09:58:38;;;;;;;;;;;15.00;99.90;;;;;;4838395;29;19962;-63
2023/04/16 10:01:10;;;;;;;;;;;15.10;99.90;;;;;;4830386;29;20011;-62
2023/04/16 10:03:39;;;;;;;;;;;15.10;99.90;;;;;;4828042;29;20556;-63
2023/04/16 10:06:14;;;;;;;;;;;15.20;99.90;;;;;;4827704;29;20408;-62
2023/04/16 10:08:58;;;;;;;;;;;15.10;99.90;;;;;;4829203;29;20343;-64
2023/04/16 10:11:24;;;;;;;;;;;15.20;99.90;;;;;;4838798;29;21391;-64
2023/04/16 10:13:50;;;;;;;;;;;15.20;99.90;;;;;;4832571;29;20018;-63
2023/04/16 10:16:16;;;;;;;;;;;15.20;99.90;;;;;;4840441;29;19926;-65
2023/04/16 10:18:43;;;;;;;;;;;15.30;99.90;;;;;;4839600;29;19964;-64
2023/04/16 10:21:11;;;;;;;;;;;15.40;99.90;;;;;;4841563;29;20293;-62
2023/04/16 10:23:40;;;;;;;;;;;15.30;99.90;;;;;;4836669;29;19947;-62
2023/04/16 10:26:06;;;;;;;;;;;15.20;99.90;;;;;;4844738;29;19944;-62
2023/04/16 10:28:34;;;;;;;;;;;15.20;99.90;;;;;;4830903;29;20038;-63
2023/04/16 10:31:00;;;;;;;;;;;15.30;99.90;;;;;;4838295;29;19912;-63
2023/04/16 10:33:27;;;;;;;;;;;15.40;99.90;;;;;;4838723;29;19943;-61
2023/04/16 10:36:09;;;;;;;;;;;15.40;99.90;;;;;;4841771;29;19972;-62
2023/04/16 10:38:37;;;;;;;;;;;15.40;99.90;;;;;;4842284;29;19958;-62
2023/04/16 10:41:03;;;;;;;;;;;15.40;99.90;;;;;;4843645;29;19998;-63
2023/04/16 10:43:29;;;;;;;;;;;15.40;99.90;;;;;;4837400;29;20022;-63
2023/04/16 10:45:55;;;;;;;;;;;15.50;99.90;;;;;;4839248;29;20385;-64
2023/04/16 10:48:22;;;;;;;;;;;15.50;99.90;;;;;;4830864;29;19928;-64
2023/04/16 10:50:57;;;;;;;;;;;15.50;99.90;;;;;;4834710;29;19921;-64
2023/04/16 10:53:24;;;;;;;;;;;15.70;99.90;;;;;;4838046;29;19947;-64
2023/04/16 10:55:56;;;;;;;;;;;15.70;99.90;;;;;;4833651;29;19923;-63
2023/04/16 10:58:28;;;;;;;;;;;15.70;99.90;;;;;;4835026;29;19920;-63
2023/04/16 11:00:54;;;;;;;;;;;15.70;99.90;;;;;;4824077;29;21755;-63
2023/04/16 11:03:19;;;;;;;;;;;15.80;99.90;;;;;;4833378;29;19936;-62
2023/04/16 11:05:45;;;;;;;;;;;15.80;99.90;;;;;;4819320;29;20424;-62
2023/04/16 11:08:18;;;;;;;;;;;15.80;99.90;;;;;;4836046;29;19920;-63
2023/04/16 11:10:43;;;;;;;;;;;15.90;99.90;;;;;;4843450;29;19920;-63
2023/04/16 11:13:11;;;;;;;;;;;15.90;99.90;;;;;;4824558;29;20003;-62
2023/04/16 11:15:37;;;;;;;;;;;15.80;99.90;;;;;;4826617;29;19917;-63
2023/04/16 11:18:02;;;;;;;;;;;15.90;99.90;;;;;;4828652;29;19916;-63
2023/04/16 11:20:28;;;;;;;;;;;15.80;99.90;;;;;;4831766;29;20631;-63
2023/04/16 11:22:54;;;;;;;;;;;15.80;99.90;;;;;;4821599;29;20395;-62
2023/04/16 11:25:24;;;;;;;;;;;15.80;99.90;;;;;;4826564;29;19916;-63
2023/04/16 11:27:50;;;;;;;;;;;15.80;99.90;;;;;;4828297;29;20022;-63
2023/04/16 11:30:16;;;;;;;;;;;15.90;99.90;;;;;;4841913;29;19923;-64
2023/04/16 11:32:42;;;;;;;;;;;15.90;99.90;;;;;;4837081;29;19927;-64
2023/04/16 11:35:15;;;;;;;;;;;15.90;99.90;;;;;;4840197;29;19927;-64
2023/04/16 11:37:41;;;;;;;;;;;16.00;99.90;;;;;;4839829;29;19924;-64
2023/04/16 11:40:08;;;;;;;;;;;16.00;99.90;;;;;;4835415;29;20282;-64
2023/04/16 11:42:39;;;;;;;;;;;16.00;99.90;;;;;;4839478;29;20392;-64
2023/04/16 11:45:05;;;;;;;;;;;15.90;99.90;;;;;;4838156;29;19928;-65
2023/04/16 11:47:31;;;;;;;;;;;15.90;99.90;;;;;;4840661;29;19931;-63
2023/04/16 11:49:57;;;;;;;;;;;15.90;99.90;;;;;;4842827;29;20037;-63
2023/04/16 11:52:26;;;;;;;;;;;15.80;99.90;;;;;;4847909;29;19923;-63
2023/04/16 11:54:51;;;;;;;;;;;15.80;99.90;;;;;;4846700;29;20413;-63
2023/04/16 11:57:30;;;;;;;;;;;15.70;99.90;;;;;;4838870;29;19914;-66
2023/04/16 11:59:56;;;;;;;;;;;15.70;99.90;;;;;;4840331;29;19916;-63
2023/04/16 12:02:35;;;;;;;;;;;15.70;99.90;;;;;;4835355;29;19964;-63
2023/04/16 12:05:01;;;;;;;;;;;15.70;99.90;;;;;;4833303;29;19924;-63
2023/04/16 12:07:27;;;;;;;;;;;15.70;99.90;;;;;;4834196;29;19964;-63
2023/04/16 12:10:03;;;;;;;;;;;15.80;99.90;;;;;;4834406;29;19922;-63
2023/04/16 12:12:30;;;;;;;;;;;15.90;99.90;;;;;;4837548;29;19916;-63
2023/04/16 12:14:58;;;;;;;;;;;15.80;99.90;;;;;;4839012;29;20131;-62
2023/04/16 12:17:23;;;;;;;;;;;15.70;99.90;;;;;;4835313;29;19916;-61
2023/04/16 12:19:56;;;;;;;;;;;15.70;99.90;;;;;;4830642;29;19963;-61
2023/04/16 12:22:28;;;;;;;;;;;15.80;99.90;;;;;;4835729;29;19924;-62
2023/04/16 12:24:55;;;;;;;;;;;15.90;99.90;;;;;;4833273;29;19983;-62
2023/04/16 12:27:21;;;;;;;;;;;15.90;99.90;;;;;;4837373;29;19915;-62
2023/04/16 12:30:01;;;;;;;;;;;16.00;99.90;;;;;;4835125;29;19932;-61
2023/04/16 12:32:27;;;;;;;;;;;16.00;99.90;;;;;;4840194;29;19955;-63
2023/04/16 12:34:52;;;;;;;;;;;16.00;99.90;;;;;;4838099;29;20642;-61
2023/04/16 12:37:18;;;;;;;;;;;16.00;99.90;;;;;;4834936;29;19964;-62
2023/04/16 12:39:43;;;;;;;;;;;16.00;99.90;;;;;;4845861;29;20397;-62
2023/04/16 12:42:11;;;;;;;;;;;16.10;99.90;;;;;;4834428;29;19936;-62
2023/04/16 12:44:37;;;;;;;;;;;16.00;99.90;;;;;;4831452;29;19928;-63
2023/04/16 12:47:04;;;;;;;;;;;16.10;99.90;;;;;;4835948;29;20015;-62
2023/04/16 12:49:29;;;;;;;;;;;16.10;99.90;;;;;;4846077;29;20064;-62
2023/04/16 12:51:55;;;;;;;;;;;16.10;99.90;;;;;;4833149;29;19916;-62
2023/04/16 12:54:20;;;;;;;;;;;16.20;99.90;;;;;;4837212;29;19924;-61
2023/04/16 12:56:46;;;;;;;;;;;16.30;99.90;;;;;;4834068;29;20465;-61
2023/04/16 12:59:12;;;;;;;;;;;16.40;99.90;;;;;;4841167;29;19919;-61
2023/04/16 13:01:37;;;;;;;;;;;16.50;99.90;;;;;;4836134;29;19919;-61
2023/04/16 13:04:03;;;;;;;;;;;16.60;99.90;;;;;;4835928;29;19924;-62
2023/04/16 13:06:31;;;;;;;;;;;16.70;99.90;;;;;;4840015;29;19912;-61
2023/04/16 13:08:56;;;;;;;;;;;16.60;99.90;;;;;;4828454;29;19919;-62
2023/04/16 13:11:22;;;;;;;;;;;16.60;99.90;;;;;;4837592;29;19954;-62
2023/04/16 13:13:48;;;;;;;;;;;16.60;99.90;;;;;;4838527;29;19912;-62
2023/04/16 13:16:13;;;;;;;;;;;16.60;99.90;;;;;;4838874;29;19916;-61
2023/04/16 13:18:39;;;;;;;;;;;16.60;99.90;;;;;;4827917;29;20366;-61
2023/04/16 13:21:05;;;;;;;;;;;16.60;99.90;;;;;;4832109;29;20367;-62
2023/04/16 13:23:31;;;;;;;;;;;16.60;99.90;;;;;;4839049;29;19950;-62
2023/04/16 13:25:56;;;;;;;;;;;16.60;99.90;;;;;;4837304;29;19926;-61
2023/04/16 13:28:22;;;;;;;;;;;16.70;99.90;;;;;;4835722;29;19927;-61
2023/04/16 13:30:47;;;;;;;;;;;16.70;99.90;;;;;;4836624;29;19988;-61
2023/04/16 13:33:13;;;;;;;;;;;16.70;99.90;;;;;;4838060;29;19920;-61
2023/04/16 13:35:38;;;;;;;;;;;16.70;99.90;;;;;;4839324;29;20029;-62
2023/04/16 13:38:04;;;;;;;;;;;16.70;99.90;;;;;;4839053;29;20670;-61
2023/04/16 13:40:30;;;;;;;;;;;16.70;99.90;;;;;;4841976;29;19970;-62
2023/04/16 13:42:56;;;;;;;;;;;16.60;99.90;;;;;;4843632;29;20010;-62
2023/04/16 13:45:21;;;;;;;;;;;16.60;99.90;;;;;;4837909;29;19943;-62
2023/04/16 13:47:47;;;;;;;;;;;16.60;99.90;;;;;;4834152;29;20018;-63
2023/04/16 13:50:13;;;;;;;;;;;16.50;99.90;;;;;;4827958;29;20636;-63
2023/04/16 13:52:38;;;;;;;;;;;16.50;99.90;;;;;;4833725;29;19919;-63
2023/04/16 13:55:04;;;;;;;;;;;16.60;99.90;;;;;;4841193;29;19996;-64
2023/04/16 13:57:30;;;;;;;;;;;16.70;99.90;;;;;;4845773;29;20353;-64
2023/04/16 13:59:56;;;;;;;;;;;16.60;99.90;;;;;;4846531;29;19920;-63
2023/04/16 14:02:22;;;;;;;;;;;16.60;99.90;;;;;;4826002;29;19915;-63
2023/04/16 14:04:47;;;;;;;;;;;16.60;99.90;;;;;;4843240;29;19920;-63
2023/04/16 14:07:13;;;;;;;;;;;16.60;99.90;;;;;;4843247;29;19920;-64
2023/04/16 14:09:39;;;;;;;;;;;16.60;99.90;;;;;;4838895;29;19920;-63
2023/04/16 14:12:04;;;;;;;;;;;16.70;99.90;;;;;;4834759;29;19959;-63
2023/04/16 14:14:30;;;;;;;;;;;16.60;99.90;;;;;;4843758;29;19920;-63
2023/04/16 14:16:59;;;;;;;;;;;16.60;99.90;;;;;;4841349;29;20290;-63